Terminal Aerodrome Forecast
Issued by NWS Topeka, KS

Home | Current Version | Previous Version | Text Only | Print | Product List | Glossary On
Versions: 1 2 3 4 5 6 7 8 9 10 11 12 13 14
000
FTUS43 KTOP 061725
TAFTOP
TAF
KTOP 061725Z 0618/0718 33014KT P6SM SCT200
     FM062300 31004KT P6SM SCT200
     FM071400 01006KT P6SM OVC040=

USA.gov is the U.S. government's official web portal to all federal, state and local government web resources and services.